Time;durP1;ratioP1;P1;durP2;ratioP2;P2;SDS_P1;SDS_P2;PMS_P1;PMS_P2;Temp;Humidity;BMP_temperature;BMP_pressure;BME280_temperature;BME280_humidity;BME280_pressure;Samples;Min_cycle;Max_cycle;Signal;HPM_P1;HPM_P2
2020/12/10 00:00:12;;;;;;;5.63;4.47;;;;;;;6.54;89.78;92645.88;5090346;28;20442;-70
2020/12/10 00:02:37;;;;;;;6.80;5.28;;;;;;;6.50;89.35;92631.75;5090700;28;20055;-70
2020/12/10 00:05:04;;;;;;;9.75;5.63;;;;;;;6.42;89.04;92617.28;5092443;28;20059;-71
2020/12/10 00:07:30;;;;;;;7.00;4.50;;;;;;;6.37;89.22;92613.44;5085931;28;20503;-71
2020/12/10 00:09:55;;;;;;;14.13;9.40;;;;;;;6.45;89.07;92616.22;5090909;28;20024;-71
2020/12/10 00:12:21;;;;;;;10.68;6.32;;;;;;;6.45;89.11;92627.19;5092001;28;20030;-71
2020/12/10 00:14:48;;;;;;;11.93;6.82;;;;;;;6.54;88.71;92635.63;5091698;28;20036;-71
2020/12/10 00:17:13;;;;;;;15.95;8.10;;;;;;;6.50;88.91;92629.00;5104170;28;20019;-70
2020/12/10 00:19:39;;;;;;;13.45;7.13;;;;;;;6.53;88.72;92627.94;5092476;28;20084;-70
2020/12/10 00:22:06;;;;;;;30.05;18.52;;;;;;;6.67;88.82;92640.25;5099224;28;20031;-71
2020/12/10 00:24:32;;;;;;;27.55;15.98;;;;;;;6.75;88.44;92641.75;5107102;28;20023;-70
2020/12/10 00:26:57;;;;;;;13.43;9.43;;;;;;;6.76;88.28;92645.22;5092242;28;20384;-69
2020/12/10 00:29:22;;;;;;;10.88;6.82;;;;;;;6.77;88.63;92647.44;5096662;28;20023;-69
2020/12/10 00:31:48;;;;;;;10.13;6.57;;;;;;;6.88;88.30;92649.84;5095422;28;20028;-69
2020/12/10 00:34:13;;;;;;;8.02;5.45;;;;;;;6.79;88.74;92652.38;5068748;28;20032;-69
2020/12/10 00:36:39;;;;;;;9.10;5.78;;;;;;;6.80;88.67;92651.81;5087574;28;20123;-70
2020/12/10 00:39:04;;;;;;;7.72;4.75;;;;;;;6.86;88.73;92673.63;5087763;28;20027;-69
2020/12/10 00:41:30;;;;;;;8.65;5.40;;;;;;;6.84;89.15;92654.22;5088131;28;20027;-69
2020/12/10 00:43:55;;;;;;;8.10;5.53;;;;;;;6.87;89.23;92662.09;5088964;28;20027;-69
2020/12/10 00:46:21;;;;;;;7.93;5.32;;;;;;;6.88;89.46;92651.84;5099629;28;20058;-69
2020/12/10 00:48:46;;;;;;;6.82;4.95;;;;;;;6.81;89.46;92636.09;5092124;28;20031;-69
2020/12/10 00:51:12;;;;;;;8.10;5.35;;;;;;;6.98;88.97;92632.84;5091636;28;20038;-69
2020/12/10 00:53:37;;;;;;;6.25;3.70;;;;;;;6.95;88.99;92626.47;5094455;28;20031;-69
2020/12/10 00:56:02;;;;;;;6.90;4.93;;;;;;;6.99;88.89;92624.09;5087763;28;20488;-69
2020/12/10 00:58:28;;;;;;;6.38;4.45;;;;;;;6.94;88.41;92605.75;5073791;28;20047;-69
2020/12/10 01:00:53;;;;;;;7.20;4.68;;;;;;;6.97;89.12;92612.91;5088202;28;20028;-69
2020/12/10 01:03:19;;;;;;;6.32;4.32;;;;;;;6.96;89.00;92599.72;5092064;28;20031;-70
2020/12/10 01:05:45;;;;;;;7.28;4.35;;;;;;;6.91;89.12;92609.59;5101380;28;20036;-70
2020/12/10 01:08:10;;;;;;;8.50;4.43;;;;;;;6.86;89.54;92616.72;5091658;28;20022;-69
2020/12/10 01:10:36;;;;;;;7.68;4.20;;;;;;;6.91;89.53;92611.63;5097296;28;20460;-70
2020/12/10 01:13:02;;;;;;;3.90;3.10;;;;;;;6.91;89.42;92620.56;5102428;28;20059;-69
2020/12/10 01:15:27;;;;;;;5.38;3.92;;;;;;;6.85;89.51;92628.25;5093982;28;20110;-69
2020/12/10 01:17:53;;;;;;;5.95;5.20;;;;;;;6.80;89.81;92607.91;5086261;28;20472;-69
2020/12/10 01:20:18;;;;;;;9.63;5.63;;;;;;;6.93;89.46;92618.00;5097892;28;20031;-69
2020/12/10 01:22:44;;;;;;;6.82;4.38;;;;;;;6.97;89.10;92615.66;5095486;28;20032;-69
2020/12/10 01:25:09;;;;;;;7.15;4.90;;;;;;;6.88;88.87;92622.41;5101700;28;20028;-69
2020/12/10 01:27:35;;;;;;;7.22;4.63;;;;;;;6.86;88.72;92633.16;5088454;28;20034;-70
2020/12/10 01:30:00;;;;;;;8.82;5.65;;;;;;;6.81;88.75;92634.09;5086840;28;20176;-70
2020/12/10 01:32:26;;;;;;;7.68;5.40;;;;;;;6.77;89.20;92616.50;5099808;28;20472;-70
2020/12/10 01:34:52;;;;;;;9.55;6.00;;;;;;;6.79;89.51;92630.41;5086304;28;20468;-69
2020/12/10 01:37:18;;;;;;;10.93;6.85;;;;;;;6.84;89.95;92635.72;5086836;28;20048;-70
2020/12/10 01:39:44;;;;;;;9.27;6.05;;;;;;;6.92;89.79;92627.53;5087394;28;20073;-69
2020/12/10 01:42:09;;;;;;;12.20;7.68;;;;;;;6.99;89.78;92624.09;5094650;28;20747;-69
2020/12/10 01:44:35;;;;;;;11.95;7.05;;;;;;;6.92;90.11;92627.53;5094491;28;20031;-69
2020/12/10 01:47:00;;;;;;;11.15;5.68;;;;;;;6.96;90.10;92625.16;5092684;28;20023;-69
2020/12/10 01:49:26;;;;;;;7.97;5.60;;;;;;;7.05;90.02;92632.88;5097370;28;20061;-69
2020/12/10 01:51:52;;;;;;;10.13;5.95;;;;;;;7.09;90.28;92635.25;5110605;28;20102;-69
2020/12/10 01:54:18;;;;;;;13.50;6.57;;;;;;;7.09;90.03;92636.00;5106688;28;20028;-69
2020/12/10 01:56:43;;;;;;;9.90;5.80;;;;;;;7.19;90.18;92633.47;5091156;28;20020;-69
2020/12/10 01:59:11;;;;;;;9.88;6.47;;;;;;;7.19;89.96;92642.41;5087078;28;20486;-70
2020/12/10 02:01:37;;;;;;;8.63;5.13;;;;;;;7.12;90.52;92634.16;5106270;28;20046;-69
2020/12/10 02:04:02;;;;;;;7.45;5.32;;;;;;;7.26;90.19;92644.44;5093594;28;20032;-69
2020/12/10 02:06:28;;;;;;;7.57;5.05;;;;;;;7.32;89.74;92631.25;5109882;28;20030;-69
2020/12/10 02:08:53;;;;;;;11.07;5.43;;;;;;;7.19;89.48;92614.94;5094745;28;20483;-69
2020/12/10 02:11:19;;;;;;;9.48;5.63;;;;;;;7.13;90.07;92619.16;5099142;28;20102;-69
2020/12/10 02:13:44;;;;;;;8.77;5.53;;;;;;;7.05;89.56;92591.69;5091176;28;20039;-69
2020/12/10 02:16:10;;;;;;;9.45;5.30;;;;;;;7.20;88.85;92616.44;5097495;28;20042;-69
2020/12/10 02:18:35;;;;;;;7.65;5.15;;;;;;;6.99;88.60;92613.09;5101606;28;20015;-70
2020/12/10 02:21:01;;;;;;;9.65;5.72;;;;;;;6.99;88.40;92607.63;5100130;28;20032;-71
2020/12/10 02:23:26;;;;;;;9.90;5.80;;;;;;;7.03;87.72;92594.25;5090380;28;20035;-71
2020/12/10 02:25:52;;;;;;;13.50;6.50;;;;;;;7.03;87.22;92599.75;5074233;28;20695;-70
2020/12/10 02:28:18;;;;;;;8.88;6.60;;;;;;;7.03;87.30;92610.72;5106639;28;20019;-70
2020/12/10 02:30:48;;;;;;;11.52;8.05;;;;;;;7.10;87.80;92610.03;5097635;28;20028;-70
2020/12/10 02:33:14;;;;;;;12.18;7.03;;;;;;;7.11;87.84;92597.75;5106903;28;20057;-70
2020/12/10 02:35:41;;;;;;;9.77;5.93;;;;;;;7.20;87.63;92602.72;5097015;28;20048;-70
2020/12/10 02:38:09;;;;;;;14.48;7.88;;;;;;;7.19;88.00;92609.47;5101628;28;20043;-71
2020/12/10 02:40:40;;;;;;;13.68;7.82;;;;;;;7.25;88.48;92607.28;5101946;28;20102;-70
2020/12/10 02:43:06;;;;;;;14.85;9.00;;;;;;;7.36;88.25;92604.16;5089925;28;20016;-71
2020/12/10 02:45:32;;;;;;;10.57;6.75;;;;;;;7.37;88.93;92597.41;5079516;28;20553;-71
2020/12/10 02:47:58;;;;;;;9.50;6.43;;;;;;;7.48;88.98;92574.34;5099364;28;20053;-70
2020/12/10 02:50:24;;;;;;;8.98;6.63;;;;;;;7.52;88.52;92564.44;5105411;28;20040;-71
2020/12/10 02:52:49;;;;;;;11.77;6.90;;;;;;;7.53;88.77;92570.69;5106085;28;20026;-70
2020/12/10 02:55:15;;;;;;;11.27;7.03;;;;;;;7.53;88.23;92571.41;5104891;28;20027;-71
2020/12/10 02:57:40;;;;;;;14.32;7.75;;;;;;;7.51;88.41;92568.47;5095470;28;20016;-71
2020/12/10 03:00:07;;;;;;;9.85;6.97;;;;;;;7.39;87.88;92561.88;5094416;28;20043;-71
2020/12/10 03:02:33;;;;;;;12.52;7.53;;;;;;;7.34;87.97;92565.53;5089619;28;20016;-71
2020/12/10 03:04:58;;;;;;;9.80;5.93;;;;;;;7.41;88.29;92578.56;5097797;28;20019;-70
2020/12/10 03:07:24;;;;;;;11.38;6.70;;;;;;;7.36;89.08;92548.53;5106148;28;20024;-70
2020/12/10 03:09:49;;;;;;;9.10;5.25;;;;;;;7.50;88.89;92558.03;5093134;28;20043;-70
2020/12/10 03:12:15;;;;;;;9.02;5.85;;;;;;;7.48;89.05;92566.09;5099376;28;20031;-68
2020/12/10 03:14:40;;;;;;;10.65;6.45;;;;;;;7.50;89.07;92563.53;5093264;28;20035;-68
2020/12/10 03:17:06;;;;;;;12.20;5.80;;;;;;;7.48;89.10;92564.09;5089647;28;20036;-68
2020/12/10 03:19:32;;;;;;;9.98;5.32;;;;;;;7.51;89.30;92557.47;5110253;28;20051;-68
2020/12/10 03:21:57;;;;;;;9.02;5.10;;;;;;;7.55;89.39;92549.63;5092179;28;20110;-68
2020/12/10 03:24:23;;;;;;;9.77;5.63;;;;;;;7.43;89.97;92551.28;5095801;28;20122;-68
2020/12/10 03:26:48;;;;;;;6.25;4.43;;;;;;;7.43;89.96;92558.78;5110408;28;20127;-69
2020/12/10 03:29:14;;;;;;;9.52;5.00;;;;;;;7.38;90.18;92551.47;5104285;28;20031;-69
2020/12/10 03:31:39;;;;;;;10.43;4.85;;;;;;;7.44;90.18;92552.75;5102459;28;20028;-69
2020/12/10 03:34:05;;;;;;;9.50;4.97;;;;;;;7.48;90.61;92544.88;5088776;28;20042;-69
2020/12/10 03:36:53;;;;;;;8.43;5.13;;;;;;;7.36;90.83;92546.50;5101091;28;20028;-70
2020/12/10 03:39:20;;;;;;;8.75;5.43;;;;;;;7.20;90.66;92522.34;5102423;28;20027;-69
2020/12/10 03:41:46;;;;;;;12.63;7.35;;;;;;;7.32;90.86;92550.94;5074674;28;20044;-70
2020/12/10 03:44:12;;;;;;;10.52;6.25;;;;;;;7.28;90.91;92536.81;5088278;28;20030;-68
2020/12/10 03:46:38;;;;;;;13.98;8.30;;;;;;;7.31;91.08;92539.19;5105425;28;20023;-68
2020/12/10 03:49:04;;;;;;;13.55;7.55;;;;;;;7.27;91.08;92547.06;5094934;28;20404;-69
2020/12/10 03:51:30;;;;;;;15.70;8.02;;;;;;;7.25;90.76;92546.91;5071244;28;20046;-69
2020/12/10 03:53:55;;;;;;;16.50;8.50;;;;;;;7.12;91.04;92527.84;5106289;28;20033;-69
2020/12/10 03:56:21;;;;;;;15.20;8.10;;;;;;;7.20;90.76;92539.56;5108417;28;20028;-69
2020/12/10 03:58:46;;;;;;;14.18;8.98;;;;;;;7.16;90.47;92555.66;5102176;28;20467;-69
2020/12/10 04:01:14;;;;;;;19.58;10.02;;;;;;;7.20;91.00;92567.00;5102097;28;20046;-68
2020/12/10 04:03:40;;;;;;;16.60;7.53;;;;;;;7.14;91.15;92563.72;5089058;28;20114;-68
2020/12/10 04:06:05;;;;;;;15.85;6.90;;;;;;;7.19;91.51;92562.78;5087948;28;20103;-68
2020/12/10 04:08:31;;;;;;;11.65;6.90;;;;;;;7.29;91.57;92573.97;5095914;28;20395;-69
2020/12/10 04:10:56;;;;;;;11.68;7.10;;;;;;;7.34;91.50;92581.31;5092540;28;20032;-68
2020/12/10 04:13:22;;;;;;;14.23;7.75;;;;;;;7.30;91.46;92578.91;5098877;28;20032;-70
2020/12/10 04:15:47;;;;;;;11.98;6.55;;;;;;;7.36;91.46;92573.97;5101388;28;20415;-71
2020/12/10 04:18:12;;;;;;;11.55;6.30;;;;;;;7.46;91.44;92580.38;5107925;28;20019;-70
2020/12/10 04:20:38;;;;;;;12.48;6.28;;;;;;;7.40;91.36;92582.59;5103557;28;20567;-70
2020/12/10 04:23:03;;;;;;;12.68;6.95;;;;;;;7.53;91.10;92593.41;5091187;28;20023;-69
2020/12/10 04:25:29;;;;;;;9.68;5.80;;;;;;;7.41;90.84;92581.28;5103040;28;20033;-69
2020/12/10 04:27:54;;;;;;;9.55;6.03;;;;;;;7.45;90.52;92592.66;5103441;28;20111;-69
2020/12/10 04:30:22;;;;;;;12.75;6.40;;;;;;;7.64;90.14;92578.56;5098688;28;20042;-69
2020/12/10 04:32:48;;;;;;;8.53;4.63;;;;;;;7.69;89.35;92576.91;5089796;28;20038;-69
2020/12/10 04:35:14;;;;;;;9.25;5.78;;;;;;;7.48;88.99;92563.34;5099418;28;20039;-69
2020/12/10 04:37:41;;;;;;;7.88;4.30;;;;;;;7.51;89.41;92576.72;5102084;28;20129;-69
2020/12/10 04:40:07;;;;;;;9.07;5.45;;;;;;;7.70;88.62;92606.56;5095285;28;20036;-69
2020/12/10 04:42:33;;;;;;;7.70;4.30;;;;;;;7.67;87.91;92601.44;5104458;28;20041;-69
2020/12/10 04:44:58;;;;;;;5.97;4.05;;;;;;;7.61;86.57;92596.88;5108752;28;20016;-69
2020/12/10 04:47:24;;;;;;;7.78;5.00;;;;;;;7.39;86.99;92580.38;5101213;28;20024;-69
2020/12/10 04:49:54;;;;;;;9.05;5.43;;;;;;;7.17;87.81;92601.03;5087128;28;20104;-69
2020/12/10 04:52:23;;;;;;;10.52;6.53;;;;;;;7.30;88.55;92619.34;5090451;28;20495;-69
2020/12/10 04:54:49;;;;;;;6.82;5.18;;;;;;;7.29;87.90;92615.91;5093772;28;20032;-69
2020/12/10 04:57:16;;;;;;;7.60;5.60;;;;;;;7.02;88.23;92595.53;5099152;28;20487;-69
2020/12/10 04:59:42;;;;;;;7.80;5.13;;;;;;;7.08;88.36;92612.56;5090796;28;20052;-69
2020/12/10 05:02:11;;;;;;;5.43;4.32;;;;;;;7.11;87.79;92622.44;5091962;28;20137;-69
2020/12/10 05:04:40;;;;;;;6.70;3.80;;;;;;;7.13;87.59;92635.63;5095126;28;20031;-71
2020/12/10 05:07:06;;;;;;;10.05;4.65;;;;;;;7.09;86.32;92624.28;5104815;28;20031;-71
2020/12/10 05:09:31;;;;;;;7.32;4.22;;;;;;;6.91;86.04;92633.56;5093067;28;20024;-71
2020/12/10 05:11:57;;;;;;;6.18;4.47;;;;;;;6.89;86.04;92612.88;5088383;28;20039;-71
2020/12/10 05:14:22;;;;;;;9.43;5.00;;;;;;;6.91;85.36;92617.81;5097598;28;20494;-71
2020/12/10 05:17:11;;;;;;;5.60;4.60;;;;;;;7.03;85.04;92624.44;5100261;28;20023;-71
2020/12/10 05:19:37;;;;;;;6.93;4.47;;;;;;;7.00;85.05;92627.53;5100191;28;20031;-72
2020/12/10 05:22:04;;;;;;;17.33;10.23;;;;;;;6.72;85.21;92644.84;5107372;28;20028;-71
2020/12/10 05:24:30;;;;;;;20.85;11.65;;;;;;;6.66;85.94;92636.03;5095171;28;20027;-71
2020/12/10 05:27:18;;;;;;;28.40;15.35;;;;;;;6.69;86.23;92638.41;5102173;28;20028;-70
2020/12/10 05:29:44;;;;;;;19.48;9.95;;;;;;;6.89;86.41;92631.34;5095992;28;20036;-70
2020/12/10 05:32:29;;;;;;;12.35;7.03;;;;;;;6.87;86.55;92617.44;5095551;28;20406;-70
2020/12/10 05:34:54;;;;;;;10.43;5.63;;;;;;;6.78;87.35;92598.75;5103004;28;20142;-69
2020/12/10 05:37:30;;;;;;;9.35;6.35;;;;;;;6.71;88.12;92610.47;5105130;28;20059;-69
2020/12/10 05:40:01;;;;;;;10.05;6.95;;;;;;;6.46;88.15;92606.69;5107870;28;20051;-69
2020/12/10 05:42:44;;;;;;;12.98;6.45;;;;;;;6.45;88.22;92618.97;5078626;28;21456;-69
2020/12/10 05:45:10;;;;;;;9.80;6.03;;;;;;;6.58;88.08;92619.53;5092440;28;20503;-71
2020/12/10 05:47:53;;;;;;;14.60;7.95;;;;;;;6.54;87.68;92619.16;5096311;28;20028;-68
2020/12/10 05:50:24;;;;;;;46.97;25.35;;;;;;;6.53;87.35;92614.22;5092319;28;20028;-68
2020/12/10 05:53:04;;;;;;;102.97;46.60;;;;;;;6.65;86.57;92609.88;5099127;28;20080;-70
2020/12/10 05:55:31;;;;;;;113.72;53.28;;;;;;;6.81;85.86;92619.63;5090296;28;20055;-70
2020/12/10 05:57:56;;;;;;;94.30;48.55;;;;;;;6.70;85.41;92609.00;5079104;28;20452;-71
2020/12/10 06:00:22;;;;;;;101.78;51.40;;;;;;;6.75;85.04;92608.84;5077219;28;20020;-71
2020/12/10 06:02:48;;;;;;;88.78;44.63;;;;;;;6.77;85.13;92613.78;5094179;28;20119;-71
2020/12/10 06:05:17;;;;;;;82.72;43.00;;;;;;;6.74;84.92;92612.84;5103060;28;20415;-71
2020/12/10 06:08:06;;;;;;;86.75;41.40;;;;;;;6.77;84.83;92608.28;5092054;28;20081;-71
2020/12/10 06:10:38;;;;;;;75.30;41.63;;;;;;;6.71;84.62;92613.22;5091323;28;20414;-72
2020/12/10 06:13:04;;;;;;;82.05;42.60;;;;;;;6.64;84.17;92600.94;5083663;28;20036;-72
2020/12/10 06:15:32;;;;;;;80.05;44.20;;;;;;;6.79;84.61;92625.69;5097479;28;20031;-71
2020/12/10 06:18:20;;;;;;;83.47;43.10;;;;;;;6.84;84.17;92626.78;5091429;28;20039;-70
2020/12/10 06:20:46;;;;;;;76.78;43.00;;;;;;;6.60;83.70;92594.34;5089082;28;20093;-70
2020/12/10 06:23:35;;;;;;;75.68;39.65;;;;;;;6.85;83.65;92611.78;5089688;28;20055;-68
2020/12/10 06:26:25;;;;;;;45.60;23.10;;;;;;;6.79;84.21;92622.94;5087497;28;20024;-67
2020/12/10 06:29:30;;;;;;;44.88;23.08;;;;;;;6.77;84.26;92614.50;5093801;28;20032;-69
2020/12/10 06:32:01;;;;;;;36.00;21.02;;;;;;;6.73;84.30;92625.09;5046441;28;20036;-68
2020/12/10 06:34:38;;;;;;;28.67;17.85;;;;;;;6.72;84.95;92639.34;5094166;28;20040;-67
2020/12/10 06:37:16;;;;;;;22.55;12.77;;;;;;;6.80;85.16;92632.63;5099682;28;21305;-69
2020/12/10 06:39:42;;;;;;;25.08;14.65;;;;;;;6.80;84.92;92629.13;5101160;28;20032;-68
2020/12/10 06:42:07;;;;;;;26.40;13.32;;;;;;;6.79;84.58;92641.41;5096478;28;20058;-67
2020/12/10 06:44:36;;;;;;;34.65;20.83;;;;;;;6.81;84.41;92650.56;5090839;28;20140;-67
2020/12/10 06:47:06;;;;;;;108.95;51.53;;;;;;;6.79;84.28;92644.13;5095772;28;20115;-67
2020/12/10 06:49:33;;;;;;;77.22;37.92;;;;;;;6.72;83.99;92644.84;5099840;28;20036;-69
2020/12/10 06:52:09;;;;;;;83.35;36.65;;;;;;;6.91;83.54;92648.00;5076175;28;20028;-69
2020/12/10 06:54:35;;;;;;;77.10;35.40;;;;;;;6.80;83.61;92637.34;5097290;28;20036;-68
2020/12/10 06:57:06;;;;;;;62.22;30.75;;;;;;;6.88;83.61;92633.38;5091311;28;20039;-68
2020/12/10 06:59:39;;;;;;;53.08;26.55;;;;;;;6.92;83.57;92640.50;5092140;28;20044;-69
2020/12/10 07:02:12;;;;;;;55.33;30.20;;;;;;;6.97;83.22;92625.91;5093079;28;20027;-68
2020/12/10 07:04:49;;;;;;;47.08;27.13;;;;;;;6.99;83.44;92629.56;5089550;28;20024;-69
2020/12/10 07:07:23;;;;;;;47.28;25.48;;;;;;;7.03;83.37;92637.44;5091937;28;20112;-68
2020/12/10 07:09:57;;;;;;;39.33;22.92;;;;;;;7.19;83.46;92638.94;5094130;28;20047;-69
2020/12/10 07:12:32;;;;;;;37.47;23.58;;;;;;;7.36;82.92;92641.91;5092494;28;20028;-68
2020/12/10 07:15:25;;;;;;;35.92;19.80;;;;;;;7.50;82.56;92645.94;5092108;28;20421;-69
2020/12/10 07:17:50;;;;;;;34.55;21.05;;;;;;;7.62;82.81;92639.53;5089545;28;20020;-68
2020/12/10 07:20:17;;;;;;;38.80;23.15;;;;;;;7.80;82.18;92642.44;5091603;28;20813;-68
2020/12/10 07:22:42;;;;;;;72.28;38.42;;;;;;;7.89;81.80;92634.41;5099026;28;20078;-67
2020/12/10 07:25:07;;;;;;;74.13;36.97;;;;;;;8.04;81.17;92628.13;5096447;28;20066;-67
2020/12/10 07:27:33;;;;;;;51.38;26.95;;;;;;;7.85;81.03;92634.03;5093185;28;20035;-67
2020/12/10 07:29:58;;;;;;;33.78;17.70;;;;;;;7.68;81.91;92636.59;5105969;28;20027;-67
2020/12/10 07:32:31;;;;;;;27.05;15.95;;;;;;;7.68;82.10;92633.13;5096715;28;20545;-67
2020/12/10 07:35:00;;;;;;;25.48;14.43;;;;;;;7.85;81.74;92630.53;5093753;28;21952;-66
2020/12/10 07:37:30;;;;;;;24.13;14.18;;;;;;;7.97;81.23;92642.66;5091129;28;20060;-67
2020/12/10 07:39:55;;;;;;;25.50;15.35;;;;;;;8.09;81.32;92649.22;5102141;28;20119;-67
2020/12/10 07:42:24;;;;;;;26.60;16.92;;;;;;;7.93;81.36;92639.50;5098233;28;20031;-67
2020/12/10 07:44:52;;;;;;;21.10;14.50;;;;;;;7.85;82.13;92634.03;5093188;28;20036;-67
2020/12/10 07:47:18;;;;;;;21.63;14.50;;;;;;;7.83;82.86;92635.88;5101676;28;20089;-69
2020/12/10 07:49:43;;;;;;;26.85;17.45;;;;;;;7.72;83.15;92631.47;5103211;28;20043;-68
2020/12/10 07:52:10;;;;;;;23.83;14.75;;;;;;;7.40;83.76;92612.81;5097820;28;20083;-68
2020/12/10 07:54:49;;;;;;;21.00;13.30;;;;;;;7.34;84.99;92623.22;5092959;28;20054;-68
2020/12/10 07:58:03;;;;;;;13.82;9.48;;;;;;;7.36;86.38;92639.16;5093186;28;20028;-68
2020/12/10 08:00:29;;;;;;;28.27;10.52;;;;;;;7.52;86.77;92633.13;5079793;28;20039;-68
2020/12/10 08:03:27;;;;;;;20.40;13.25;;;;;;;7.79;85.79;92636.25;5092022;28;20027;-68
2020/12/10 08:05:58;;;;;;;24.65;15.85;;;;;;;7.97;84.74;92642.66;5095274;28;20446;-68
2020/12/10 08:08:40;;;;;;;21.23;14.77;;;;;;;8.09;84.13;92630.72;5084442;28;20503;-68
2020/12/10 08:11:07;;;;;;;27.25;14.10;;;;;;;8.24;83.29;92625.19;5094953;28;20523;-69
2020/12/10 08:13:36;;;;;;;29.73;17.77;;;;;;;8.42;82.86;92623.34;5095688;28;20028;-68
2020/12/10 08:16:09;;;;;;;85.40;40.43;;;;;;;8.56;82.32;92615.56;5093950;27;20035;-68
2020/12/10 08:18:35;;;;;;;136.27;65.38;;;;;;;8.69;81.71;92612.59;5088975;28;20036;-68
2020/12/10 08:21:06;;;;;;;123.68;60.03;;;;;;;8.87;81.06;92616.94;5075221;28;20038;-70
2020/12/10 08:23:45;;;;;;;87.97;48.47;;;;;;;9.04;80.44;92614.25;5090792;28;20823;-68
2020/12/10 08:26:11;;;;;;;;;;;;;;;9.30;80.08;92627.53;5096075;28;20024;-72
2020/12/10 08:28:37;;;;;;;94.70;52.08;;;;;;;9.48;79.46;92618.03;5096796;28;19923;-70
2020/12/10 08:31:02;;;;;;;85.97;49.22;;;;;;;9.73;78.67;92631.81;5090032;28;20032;-71
2020/12/10 08:33:38;;;;;;;96.97;55.75;;;;;;;9.78;77.32;92597.78;5092674;28;20111;-71
2020/12/10 08:36:07;;;;;;;92.55;51.83;;;;;;;10.05;76.91;92614.47;5071010;28;20040;-70
2020/12/10 08:38:36;;;;;;;90.63;51.60;;;;;;;10.26;76.84;92623.84;5090273;28;20095;-69
2020/12/10 08:41:08;;;;;;;53.08;31.55;;;;;;;10.43;76.13;92626.63;5095518;28;20031;-68
2020/12/10 08:43:33;;;;;;;32.45;18.60;;;;;;;10.63;75.45;92619.94;5093902;28;20034;-67
2020/12/10 08:46:13;;;;;;;37.00;21.38;;;;;;;10.85;75.00;92607.19;5089243;28;20463;-68
2020/12/10 08:48:39;;;;;;;16.80;10.98;;;;;;;10.97;74.81;92613.69;5088163;28;20389;-68
2020/12/10 08:51:35;;;;;;;24.45;16.77;;;;;;;11.16;74.82;92611.03;5088583;28;20032;-67
2020/12/10 08:54:07;;;;;;;33.67;20.80;;;;;;;11.45;74.07;92602.91;5087328;28;20035;-69
2020/12/10 08:56:37;;;;;;;34.72;18.63;;;;;;;11.78;72.92;92614.41;5087930;28;20046;-68
2020/12/10 08:59:12;;;;;;;23.92;15.50;;;;;;;11.91;71.84;92614.72;5092457;28;20107;-68
2020/12/10 09:01:58;;;;;;;15.85;10.02;;;;;;;12.00;71.67;92621.59;5089494;28;20071;-70
2020/12/10 09:04:24;;;;;;;13.13;8.30;;;;;;;11.86;71.36;92615.03;5087526;28;20047;-70
2020/12/10 09:06:49;;;;;;;13.10;7.53;;;;;;;11.78;71.29;92606.13;5094845;28;20031;-70
2020/12/10 09:09:17;;;;;;;15.73;7.88;;;;;;;11.70;71.45;92600.69;5088611;28;20536;-70
2020/12/10 09:11:46;;;;;;;14.10;9.43;;;;;;;11.70;72.10;92609.00;5089853;28;20023;-70
2020/12/10 09:14:12;;;;;;;14.70;9.13;;;;;;;11.45;72.45;92589.06;5091862;28;20027;-70
2020/12/10 09:16:37;;;;;;;33.42;17.77;;;;;;;11.52;73.01;92593.75;5096515;28;20036;-69
2020/12/10 09:19:03;;;;;;;18.27;10.48;;;;;;;11.54;73.02;92571.81;5091943;28;20016;-71
2020/12/10 09:21:34;;;;;;;12.27;6.60;;;;;;;11.58;72.74;92577.63;5093138;28;20412;-71
2020/12/10 09:24:02;;;;;;;10.15;6.85;;;;;;;11.35;73.44;92571.69;5092257;28;20040;-71
2020/12/10 09:26:30;;;;;;;12.00;6.38;;;;;;;11.29;73.38;92574.00;5091269;28;20047;-72
2020/12/10 09:28:56;;;;;;;18.27;10.80;;;;;;;11.21;74.11;92587.94;5075439;28;20061;-70
2020/12/10 09:31:21;;;;;;;14.00;7.63;;;;;;;11.07;74.42;92588.84;5092698;28;20253;-71
2020/12/10 09:33:47;;;;;;;13.27;8.35;;;;;;;10.99;73.97;92583.44;5091192;28;20040;-71
2020/12/10 09:36:15;;;;;;;11.57;5.82;;;;;;;10.80;75.08;92585.34;5092442;28;20036;-71
2020/12/10 09:38:40;;;;;;;21.35;11.13;;;;;;;10.89;74.90;92579.16;5087289;28;20521;-71
2020/12/10 09:41:07;;;;;;;20.38;8.88;;;;;;;10.98;74.58;92570.94;5092186;28;20027;-70
2020/12/10 09:43:32;;;;;;;8.88;4.90;;;;;;;10.94;74.35;92556.06;5089473;28;20039;-70
2020/12/10 09:46:12;;;;;;;6.47;3.40;;;;;;;11.11;73.54;92559.50;5090054;28;20055;-68
2020/12/10 09:48:41;;;;;;;4.28;2.28;;;;;;;11.17;72.38;92562.03;5090461;28;20028;-70
2020/12/10 09:51:08;;;;;;;5.88;3.38;;;;;;;11.10;72.57;92549.78;5091832;28;20073;-70
2020/12/10 09:53:51;;;;;;;10.90;5.45;;;;;;;11.16;72.93;92552.28;5088151;28;20727;-69
2020/12/10 09:56:56;;;;;;;7.65;4.63;;;;;;;11.12;73.10;92551.97;5093303;28;20475;-72
2020/12/10 09:59:14;;;;;;;6.15;4.40;;;;;;;11.04;74.32;92556.88;5094354;28;20040;-72
2020/12/10 10:01:45;;;;;;;5.32;3.50;;;;;;;11.03;73.76;92552.63;5087300;28;21549;-72
2020/12/10 10:04:11;;;;;;;7.82;4.20;;;;;;;10.97;74.46;92557.69;5088696;28;20039;-72
2020/12/10 10:06:36;;;;;;;7.22;3.95;;;;;;;10.89;74.92;92557.06;5083315;28;20035;-70
2020/12/10 10:09:04;;;;;;;9.00;3.70;;;;;;;10.63;75.22;92547.47;5101977;28;20049;-69
2020/12/10 10:11:36;;;;;;;6.78;2.63;;;;;;;10.72;75.26;92570.91;5092414;28;20027;-70
2020/12/10 10:14:02;;;;;;;9.45;5.13;;;;;;;10.50;75.77;92569.88;5102092;28;20020;-68
2020/12/10 10:16:31;;;;;;;10.13;3.95;;;;;;;10.48;76.21;92573.19;5090490;28;20040;-69
2020/12/10 10:18:57;;;;;;;;;;;;;;;10.56;76.21;92573.13;5091008;28;20165;-69
2020/12/10 10:21:23;;;;;;;19.33;7.80;;;;;;;10.51;76.56;92552.00;5091259;28;20007;-71
2020/12/10 10:23:49;;;;;;;20.77;8.20;;;;;;;10.48;76.78;92548.34;5098156;28;20498;-72
2020/12/10 10:26:15;;;;;;;6.22;3.15;;;;;;;10.48;76.52;92559.41;5092174;28;20031;-73
2020/12/10 10:28:46;;;;;;;5.22;3.28;;;;;;;10.52;75.91;92554.22;5091997;28;20074;-74
2020/12/10 10:31:12;;;;;;;6.13;2.85;;;;;;;10.54;76.34;92561.94;5092262;28;20107;-67
2020/12/10 10:33:40;;;;;;;12.38;5.75;;;;;;;10.66;75.64;92558.09;5088132;28;20032;-68
2020/12/10 10:36:05;;;;;;;16.80;7.57;;;;;;;10.65;75.60;92553.84;5092469;28;20035;-67
2020/12/10 10:38:31;;;;;;;4.43;3.17;;;;;;;10.54;75.88;92546.09;5093382;28;20055;-68
2020/12/10 10:40:59;;;;;;;19.50;8.07;;;;;;;10.64;75.96;92548.91;5081293;28;20032;-66
2020/12/10 10:43:27;;;;;;;4.27;3.30;;;;;;;10.76;75.48;92543.63;5091701;28;20428;-65
2020/12/10 10:45:53;;;;;;;10.13;3.85;;;;;;;10.88;75.38;92550.09;5092807;28;20428;-65
2020/12/10 10:48:18;;;;;;;4.60;2.15;;;;;;;10.81;75.02;92539.84;5090703;28;20044;-65
2020/12/10 10:50:47;;;;;;;3.05;2.25;;;;;;;10.78;75.05;92521.69;5093846;28;20043;-66
2020/12/10 10:53:12;;;;;;;5.17;2.00;;;;;;;10.89;75.65;92538.47;5097053;28;20058;-67
2020/12/10 10:55:40;;;;;;;50.08;26.88;;;;;;;10.92;75.73;92544.88;5091350;28;20349;-66
2020/12/10 10:58:05;;;;;;;11.38;7.55;;;;;;;11.07;75.54;92541.91;5091188;28;20023;-65
2020/12/10 11:00:37;;;;;;;7.10;2.38;;;;;;;11.01;75.27;92544.19;5096500;28;20024;-65
2020/12/10 11:03:03;;;;;;;3.83;1.83;;;;;;;11.14;75.30;92543.84;5093544;28;20111;-64
2020/12/10 11:05:37;;;;;;;3.65;2.25;;;;;;;11.19;75.48;92529.03;5090778;28;20028;-64
2020/12/10 11:08:06;;;;;;;4.57;2.95;;;;;;;11.24;75.17;92525.28;5094354;28;20427;-65
2020/12/10 11:10:40;;;;;;;5.05;3.35;;;;;;;11.17;75.22;92529.63;5091741;28;20044;-64
2020/12/10 11:13:06;;;;;;;4.78;2.08;;;;;;;11.28;74.37;92533.88;5093398;28;20895;-65
2020/12/10 11:15:37;;;;;;;3.78;3.05;;;;;;;11.29;75.07;92527.03;5090660;28;20027;-65
2020/12/10 11:18:14;;;;;;;4.03;3.10;;;;;;;11.32;74.32;92532.16;5093703;28;20456;-65
2020/12/10 11:20:39;;;;;;;5.10;2.22;;;;;;;11.10;74.02;92507.63;5094708;28;21647;-65
2020/12/10 11:23:05;;;;;;;3.88;2.55;;;;;;;11.25;73.55;92518.44;5093788;28;20115;-65
2020/12/10 11:25:30;;;;;;;7.75;4.05;;;;;;;11.12;74.52;92513.28;5094097;28;20035;-65
2020/12/10 11:27:55;;;;;;;5.50;2.83;;;;;;;11.00;74.33;92504.78;5095017;28;20039;-65
2020/12/10 11:30:21;;;;;;;4.65;2.20;;;;;;;10.87;75.02;92507.94;5093550;28;20020;-65
2020/12/10 11:32:49;;;;;;;3.50;2.13;;;;;;;10.81;75.39;92501.19;5088917;28;20028;-65
2020/12/10 11:35:17;;;;;;;8.23;3.67;;;;;;;10.97;75.28;92497.69;5094401;28;20024;-65
2020/12/10 11:37:43;;;;;;;4.30;2.80;;;;;;;11.10;74.89;92500.06;5089274;28;20572;-66